sensor_id;sensor_type;location;lat;lon;timestamp;temperature;humidity
20590;DHT22;10453;50.810;12.540;2022-08-07T00:01:10;10.60;99.90
20590;DHT22;10453;50.810;12.540;2022-08-07T00:05:47;10.30;99.90
20590;DHT22;10453;50.810;12.540;2022-08-07T00:10:04;10.20;99.90
20590;DHT22;10453;50.810;12.540;2022-08-07T00:14:41;10.20;99.90
20590;DHT22;10453;50.810;12.540;2022-08-07T00:19:00;10.00;99.90
20590;DHT22;10453;50.810;12.540;2022-08-07T00:23:21;10.00;99.90
20590;DHT22;10453;50.810;12.540;2022-08-07T00:27:38;10.10;99.90
20590;DHT22;10453;50.810;12.540;2022-08-07T00:32:09;10.00;99.90
20590;DHT22;10453;50.810;12.540;2022-08-07T00:36:29;10.00;99.90
20590;DHT22;10453;50.810;12.540;2022-08-07T00:40:46;9.90;99.90
20590;DHT22;10453;50.810;12.540;2022-08-07T00:45:04;9.90;99.90
20590;DHT22;10453;50.810;12.540;2022-08-07T00:49:23;9.90;99.90
20590;DHT22;10453;50.810;12.540;2022-08-07T00:53:59;9.80;99.90
20590;DHT22;10453;50.810;12.540;2022-08-07T00:58:18;9.70;99.90
20590;DHT22;10453;50.810;12.540;2022-08-07T01:02:36;9.60;99.90
20590;DHT22;10453;50.810;12.540;2022-08-07T01:06:55;9.60;99.90
20590;DHT22;10453;50.810;12.540;2022-08-07T01:11:12;9.50;99.90
20590;DHT22;10453;50.810;12.540;2022-08-07T01:15:50;9.50;99.90
20590;DHT22;10453;50.810;12.540;2022-08-07T01:20:29;9.40;99.90
20590;DHT22;10453;50.810;12.540;2022-08-07T01:24:47;9.30;99.90
20590;DHT22;10453;50.810;12.540;2022-08-07T01:29:05;9.40;99.90
20590;DHT22;10453;50.810;12.540;2022-08-07T01:33:23;9.30;99.90
20590;DHT22;10453;50.810;12.540;2022-08-07T01:38:00;9.30;99.90
20590;DHT22;10453;50.810;12.540;2022-08-07T01:42:17;9.20;99.90
20590;DHT22;10453;50.810;12.540;2022-08-07T01:46:55;9.20;99.90
20590;DHT22;10453;50.810;12.540;2022-08-07T01:51:18;9.10;99.90
20590;DHT22;10453;50.810;12.540;2022-08-07T01:55:56;9.00;99.90
20590;DHT22;10453;50.810;12.540;2022-08-07T02:00:14;9.00;99.90
20590;DHT22;10453;50.810;12.540;2022-08-07T02:04:43;9.00;99.90
20590;DHT22;10453;50.810;12.540;2022-08-07T02:09:13;9.00;99.90
20590;DHT22;10453;50.810;12.540;2022-08-07T02:13:51;8.90;99.90
20590;DHT22;10453;50.810;12.540;2022-08-07T02:18:14;9.00;99.90
20590;DHT22;10453;50.810;12.540;2022-08-07T02:22:35;8.90;99.90
20590;DHT22;10453;50.810;12.540;2022-08-07T02:27:00;8.90;99.90
20590;DHT22;10453;50.810;12.540;2022-08-07T02:31:18;8.80;99.90
20590;DHT22;10453;50.810;12.540;2022-08-07T02:35:45;8.60;99.90
20590;DHT22;10453;50.810;12.540;2022-08-07T02:40:24;8.70;99.90
20590;DHT22;10453;50.810;12.540;2022-08-07T02:44:51;8.50;99.90
20590;DHT22;10453;50.810;12.540;2022-08-07T02:49:09;8.40;99.90
20590;DHT22;10453;50.810;12.540;2022-08-07T02:53:44;8.60;99.90
20590;DHT22;10453;50.810;12.540;2022-08-07T02:58:07;8.50;99.90
20590;DHT22;10453;50.810;12.540;2022-08-07T03:02:26;8.50;99.90
20590;DHT22;10453;50.810;12.540;2022-08-07T03:06:43;8.30;99.90
20590;DHT22;10453;50.810;12.540;2022-08-07T03:11:04;8.20;99.90
20590;DHT22;10453;50.810;12.540;2022-08-07T03:15:22;8.30;99.90
20590;DHT22;10453;50.810;12.540;2022-08-07T03:19:59;8.30;99.90
20590;DHT22;10453;50.810;12.540;2022-08-07T03:24:17;8.20;99.90
20590;DHT22;10453;50.810;12.540;2022-08-07T03:28:44;8.20;99.90
20590;DHT22;10453;50.810;12.540;2022-08-07T03:33:03;8.10;99.90
20590;DHT22;10453;50.810;12.540;2022-08-07T03:37:24;8.10;99.90
20590;DHT22;10453;50.810;12.540;2022-08-07T03:41:43;8.10;99.90
20590;DHT22;10453;50.810;12.540;2022-08-07T03:46:06;8.10;99.90
20590;DHT22;10453;50.810;12.540;2022-08-07T03:50:26;8.20;99.90
20590;DHT22;10453;50.810;12.540;2022-08-07T03:54:44;8.10;99.90
20590;DHT22;10453;50.810;12.540;2022-08-07T03:59:13;8.00;99.90
20590;DHT22;10453;50.810;12.540;2022-08-07T04:03:31;8.00;99.90
20590;DHT22;10453;50.810;12.540;2022-08-07T04:08:06;7.90;99.90
20590;DHT22;10453;50.810;12.540;2022-08-07T04:12:27;7.90;99.90
20590;DHT22;10453;50.810;12.540;2022-08-07T04:16:46;7.90;99.90
20590;DHT22;10453;50.810;12.540;2022-08-07T04:21:14;8.00;99.90
20590;DHT22;10453;50.810;12.540;2022-08-07T04:25:33;8.10;99.90
20590;DHT22;10453;50.810;12.540;2022-08-07T04:29:55;8.10;99.90
20590;DHT22;10453;50.810;12.540;2022-08-07T04:34:20;8.00;99.90
20590;DHT22;10453;50.810;12.540;2022-08-07T04:38:49;8.10;99.90
20590;DHT22;10453;50.810;12.540;2022-08-07T04:43:07;8.20;99.90
20590;DHT22;10453;50.810;12.540;2022-08-07T04:47:37;8.30;99.90
20590;DHT22;10453;50.810;12.540;2022-08-07T04:52:31;8.40;99.90
20590;DHT22;10453;50.810;12.540;2022-08-07T04:56:52;8.50;99.90
20590;DHT22;10453;50.810;12.540;2022-08-07T05:01:50;8.40;99.90
20590;DHT22;10453;50.810;12.540;2022-08-07T05:06:11;8.60;99.90
20590;DHT22;10453;50.810;12.540;2022-08-07T05:10:36;8.80;99.90
20590;DHT22;10453;50.810;12.540;2022-08-07T05:14:57;9.00;99.90
20590;DHT22;10453;50.810;12.540;2022-08-07T05:19:21;9.10;99.90
20590;DHT22;10453;50.810;12.540;2022-08-07T05:23:50;9.30;99.90
20590;DHT22;10453;50.810;12.540;2022-08-07T05:28:08;9.40;99.90
20590;DHT22;10453;50.810;12.540;2022-08-07T05:32:36;9.60;99.90
20590;DHT22;10453;50.810;12.540;2022-08-07T05:36:55;9.80;99.90
20590;DHT22;10453;50.810;12.540;2022-08-07T05:41:14;10.00;99.90
20590;DHT22;10453;50.810;12.540;2022-08-07T05:45:34;10.20;99.90
20590;DHT22;10453;50.810;12.540;2022-08-07T05:50:03;10.40;99.90
20590;DHT22;10453;50.810;12.540;2022-08-07T05:54:21;10.50;99.90
20590;DHT22;10453;50.810;12.540;2022-08-07T05:58:58;10.70;99.90
20590;DHT22;10453;50.810;12.540;2022-08-07T06:03:18;10.90;99.90
20590;DHT22;10453;50.810;12.540;2022-08-07T06:07:39;11.10;99.90
20590;DHT22;10453;50.810;12.540;2022-08-07T06:12:17;11.20;99.90
20590;DHT22;10453;50.810;12.540;2022-08-07T06:16:36;11.40;99.90
20590;DHT22;10453;50.810;12.540;2022-08-07T06:20:54;11.60;99.90
20590;DHT22;10453;50.810;12.540;2022-08-07T06:25:31;11.80;99.90
20590;DHT22;10453;50.810;12.540;2022-08-07T06:29:52;11.90;99.90
20590;DHT22;10453;50.810;12.540;2022-08-07T06:34:11;12.10;99.90
20590;DHT22;10453;50.810;12.540;2022-08-07T06:38:29;12.20;99.90
20590;DHT22;10453;50.810;12.540;2022-08-07T06:42:47;12.40;99.90
20590;DHT22;10453;50.810;12.540;2022-08-07T06:47:06;12.60;99.90
20590;DHT22;10453;50.810;12.540;2022-08-07T06:51:31;12.80;99.90
20590;DHT22;10453;50.810;12.540;2022-08-07T06:55:49;13.10;99.90
20590;DHT22;10453;50.810;12.540;2022-08-07T07:00:18;13.30;99.90
20590;DHT22;10453;50.810;12.540;2022-08-07T07:04:36;13.50;99.90
20590;DHT22;10453;50.810;12.540;2022-08-07T07:09:15;13.90;99.90
20590;DHT22;10453;50.810;12.540;2022-08-07T07:13:36;14.40;99.90
20590;DHT22;10453;50.810;12.540;2022-08-07T07:18:21;14.50;99.90
20590;DHT22;10453;50.810;12.540;2022-08-07T07:22:59;14.60;99.90
20590;DHT22;10453;50.810;12.540;2022-08-07T07:27:39;14.90;99.90
20590;DHT22;10453;50.810;12.540;2022-08-07T07:32:12;15.20;99.90
20590;DHT22;10453;50.810;12.540;2022-08-07T07:36:30;15.60;99.90
20590;DHT22;10453;50.810;12.540;2022-08-07T07:40:48;15.80;99.90
20590;DHT22;10453;50.810;12.540;2022-08-07T07:45:06;16.90;99.90
20590;DHT22;10453;50.810;12.540;2022-08-07T07:49:26;18.10;99.90
20590;DHT22;10453;50.810;12.540;2022-08-07T07:54:04;19.00;99.90
20590;DHT22;10453;50.810;12.540;2022-08-07T07:58:28;19.60;97.60
20590;DHT22;10453;50.810;12.540;2022-08-07T08:02:58;20.40;91.10
20590;DHT22;10453;50.810;12.540;2022-08-07T08:07:22;20.90;92.30
20590;DHT22;10453;50.810;12.540;2022-08-07T08:11:51;21.50;88.60
20590;DHT22;10453;50.810;12.540;2022-08-07T08:16:19;21.90;79.80
20590;DHT22;10453;50.810;12.540;2022-08-07T08:20:41;22.30;71.40
20590;DHT22;10453;50.810;12.540;2022-08-07T08:25:03;22.70;78.30
20590;DHT22;10453;50.810;12.540;2022-08-07T08:30:07;23.10;75.60
20590;DHT22;10453;50.810;12.540;2022-08-07T08:34:30;24.00;61.10
20590;DHT22;10453;50.810;12.540;2022-08-07T08:38:48;22.80;59.60
20590;DHT22;10453;50.810;12.540;2022-08-07T08:52:45;25.20;55.90
20590;DHT22;10453;50.810;12.540;2022-08-07T08:57:12;26.10;54.50
20590;DHT22;10453;50.810;12.540;2022-08-07T09:01:41;27.00;50.90
20590;DHT22;10453;50.810;12.540;2022-08-07T09:06:07;27.80;48.80
20590;DHT22;10453;50.810;12.540;2022-08-07T09:10:31;27.20;46.80
20590;DHT22;10453;50.810;12.540;2022-08-07T09:24:18;26.00;46.60
20590;DHT22;10453;50.810;12.540;2022-08-07T09:29:02;24.00;48.50
20590;DHT22;10453;50.810;12.540;2022-08-07T09:43:25;27.80;47.70
20590;DHT22;10453;50.810;12.540;2022-08-07T09:52:34;27.00;50.40
20590;DHT22;10453;50.810;12.540;2022-08-07T09:56:57;28.60;47.10
20590;DHT22;10453;50.810;12.540;2022-08-07T10:06:12;28.00;42.10
20590;DHT22;10453;50.810;12.540;2022-08-07T10:10:44;29.00;48.60
20590;DHT22;10453;50.810;12.540;2022-08-07T10:15:28;28.80;44.00
20590;DHT22;10453;50.810;12.540;2022-08-07T10:25:02;27.50;45.40
20590;DHT22;10453;50.810;12.540;2022-08-07T10:29:35;28.20;47.20
20590;DHT22;10453;50.810;12.540;2022-08-07T10:39:14;29.60;41.60
20590;DHT22;10453;50.810;12.540;2022-08-07T10:43:28;29.60;40.40
20590;DHT22;10453;50.810;12.540;2022-08-07T10:52:36;28.90;44.30
20590;DHT22;10453;50.810;12.540;2022-08-07T11:06:20;28.20;42.00
20590;DHT22;10453;50.810;12.540;2022-08-07T11:10:46;30.10;45.00
20590;DHT22;10453;50.810;12.540;2022-08-07T11:15:21;29.50;39.80
20590;DHT22;10453;50.810;12.540;2022-08-07T11:19:57;29.70;39.90
20590;DHT22;10453;50.810;12.540;2022-08-07T11:24:20;30.20;41.20
20590;DHT22;10453;50.810;12.540;2022-08-07T11:28:39;29.40;38.20
20590;DHT22;10453;50.810;12.540;2022-08-07T11:38:25;30.70;37.40
20590;DHT22;10453;50.810;12.540;2022-08-07T11:42:53;30.90;38.90
20590;DHT22;10453;50.810;12.540;2022-08-07T11:47:23;30.70;37.70
20590;DHT22;10453;50.810;12.540;2022-08-07T12:01:34;29.70;36.80
20590;DHT22;10453;50.810;12.540;2022-08-07T12:10:52;29.90;38.60
20590;DHT22;10453;50.810;12.540;2022-08-07T12:15:31;30.00;36.80
20590;DHT22;10453;50.810;12.540;2022-08-07T12:20:12;30.10;41.10
20590;DHT22;10453;50.810;12.540;2022-08-07T12:30:03;29.90;36.70
20590;DHT22;10453;50.810;12.540;2022-08-07T12:34:20;30.20;38.60
20590;DHT22;10453;50.810;12.540;2022-08-07T12:38:42;30.50;38.60
20590;DHT22;10453;50.810;12.540;2022-08-07T12:43:13;31.50;39.10
20590;DHT22;10453;50.810;12.540;2022-08-07T12:47:58;32.30;36.60
20590;DHT22;10453;50.810;12.540;2022-08-07T12:53:01;31.70;40.00
20590;DHT22;10453;50.810;12.540;2022-08-07T12:57:02;31.00;36.60
20590;DHT22;10453;50.810;12.540;2022-08-07T13:01:41;31.70;37.40
20590;DHT22;10453;50.810;12.540;2022-08-07T13:11:01;30.50;39.90
20590;DHT22;10453;50.810;12.540;2022-08-07T13:15:31;30.50;38.40
20590;DHT22;10453;50.810;12.540;2022-08-07T13:20:08;29.80;37.60
20590;DHT22;10453;50.810;12.540;2022-08-07T13:24:32;29.90;39.40
20590;DHT22;10453;50.810;12.540;2022-08-07T13:33:37;31.30;39.90
20590;DHT22;10453;50.810;12.540;2022-08-07T13:38:20;32.30;38.30
20590;DHT22;10453;50.810;12.540;2022-08-07T13:42:40;30.00;35.70
20590;DHT22;10453;50.810;12.540;2022-08-07T13:46:59;30.50;37.60
20590;DHT22;10453;50.810;12.540;2022-08-07T13:51:16;31.20;40.40
20590;DHT22;10453;50.810;12.540;2022-08-07T13:55:55;29.50;36.50
20590;DHT22;10453;50.810;12.540;2022-08-07T14:00:12;31.00;41.10
20590;DHT22;10453;50.810;12.540;2022-08-07T14:09:06;30.90;35.70
20590;DHT22;10453;50.810;12.540;2022-08-07T14:13:33;31.10;35.60
20590;DHT22;10453;50.810;12.540;2022-08-07T14:17:51;32.10;36.70
20590;DHT22;10453;50.810;12.540;2022-08-07T14:22:30;32.90;34.50
20590;DHT22;10453;50.810;12.540;2022-08-07T14:26:54;30.90;39.90
20590;DHT22;10453;50.810;12.540;2022-08-07T14:31:13;31.80;39.20
20590;DHT22;10453;50.810;12.540;2022-08-07T14:35:33;32.30;37.90
20590;DHT22;10453;50.810;12.540;2022-08-07T14:40:03;32.20;34.60
20590;DHT22;10453;50.810;12.540;2022-08-07T14:44:45;32.60;33.80
20590;DHT22;10453;50.810;12.540;2022-08-07T14:49:07;31.50;36.20
20590;DHT22;10453;50.810;12.540;2022-08-07T14:53:45;30.70;35.10
20590;DHT22;10453;50.810;12.540;2022-08-07T14:58:24;30.20;35.90
20590;DHT22;10453;50.810;12.540;2022-08-07T15:02:43;30.60;38.30
20590;DHT22;10453;50.810;12.540;2022-08-07T15:07:16;31.20;36.60
20590;DHT22;10453;50.810;12.540;2022-08-07T15:12:00;31.70;34.70
20590;DHT22;10453;50.810;12.540;2022-08-07T15:16:23;31.70;38.10
20590;DHT22;10453;50.810;12.540;2022-08-07T15:20:50;32.40;34.40
20590;DHT22;10453;50.810;12.540;2022-08-07T15:25:13;31.60;33.00
20590;DHT22;10453;50.810;12.540;2022-08-07T15:29:52;30.90;35.10
20590;DHT22;10453;50.810;12.540;2022-08-07T15:34:36;31.10;34.10
20590;DHT22;10453;50.810;12.540;2022-08-07T15:39:12;31.10;34.00
20590;DHT22;10453;50.810;12.540;2022-08-07T15:43:31;30.00;35.90
20590;DHT22;10453;50.810;12.540;2022-08-07T15:48:21;28.20;37.20
20590;DHT22;10453;50.810;12.540;2022-08-07T15:52:41;27.90;37.70
20590;DHT22;10453;50.810;12.540;2022-08-07T15:57:10;27.60;38.60
20590;DHT22;10453;50.810;12.540;2022-08-07T16:01:50;27.40;38.50
20590;DHT22;10453;50.810;12.540;2022-08-07T16:11:07;25.70;40.70
20590;DHT22;10453;50.810;12.540;2022-08-07T16:15:49;25.80;40.20
20590;DHT22;10453;50.810;12.540;2022-08-07T16:24:58;25.70;41.00
20590;DHT22;10453;50.810;12.540;2022-08-07T16:29:23;25.30;40.50
20590;DHT22;10453;50.810;12.540;2022-08-07T16:34:05;24.90;40.70
20590;DHT22;10453;50.810;12.540;2022-08-07T16:38:29;24.80;41.60
20590;DHT22;10453;50.810;12.540;2022-08-07T16:43:35;24.80;40.70
20590;DHT22;10453;50.810;12.540;2022-08-07T16:53:12;24.70;41.40
20590;DHT22;10453;50.810;12.540;2022-08-07T16:58:03;24.50;41.20
20590;DHT22;10453;50.810;12.540;2022-08-07T17:02:39;24.50;42.00
20590;DHT22;10453;50.810;12.540;2022-08-07T17:07:17;24.30;41.60
20590;DHT22;10453;50.810;12.540;2022-08-07T17:12:18;24.20;42.40
20590;DHT22;10453;50.810;12.540;2022-08-07T17:16:57;24.10;42.70
20590;DHT22;10453;50.810;12.540;2022-08-07T17:21:22;23.90;44.10
20590;DHT22;10453;50.810;12.540;2022-08-07T17:25:43;23.90;42.30
20590;DHT22;10453;50.810;12.540;2022-08-07T17:30:09;23.90;42.90
20590;DHT22;10453;50.810;12.540;2022-08-07T17:34:37;23.70;43.40
20590;DHT22;10453;50.810;12.540;2022-08-07T17:39:19;23.50;44.20
20590;DHT22;10453;50.810;12.540;2022-08-07T17:43:42;23.40;43.80
20590;DHT22;10453;50.810;12.540;2022-08-07T17:48:22;23.30;44.20
20590;DHT22;10453;50.810;12.540;2022-08-07T17:52:58;23.10;44.80
20590;DHT22;10453;50.810;12.540;2022-08-07T17:58:10;23.00;44.20
20590;DHT22;10453;50.810;12.540;2022-08-07T18:02:16;22.90;44.10
20590;DHT22;10453;50.810;12.540;2022-08-07T18:06:55;22.70;45.00
20590;DHT22;10453;50.810;12.540;2022-08-07T18:11:44;22.50;45.60
20590;DHT22;10453;50.810;12.540;2022-08-07T18:16:29;22.30;45.20
20590;DHT22;10453;50.810;12.540;2022-08-07T18:21:04;22.10;45.60
20590;DHT22;10453;50.810;12.540;2022-08-07T18:25:46;21.90;46.60
20590;DHT22;10453;50.810;12.540;2022-08-07T18:30:04;21.70;47.00
20590;DHT22;10453;50.810;12.540;2022-08-07T18:39:38;21.30;49.80
20590;DHT22;10453;50.810;12.540;2022-08-07T19:07:33;19.50;54.40
20590;DHT22;10453;50.810;12.540;2022-08-07T19:11:56;19.10;55.70
20590;DHT22;10453;50.810;12.540;2022-08-07T19:16:23;18.80;56.70
20590;DHT22;10453;50.810;12.540;2022-08-07T19:21:06;18.50;57.40
20590;DHT22;10453;50.810;12.540;2022-08-07T19:25:49;18.30;58.00
20590;DHT22;10453;50.810;12.540;2022-08-07T19:30:30;18.00;59.30
20590;DHT22;10453;50.810;12.540;2022-08-07T19:35:10;17.80;60.50
20590;DHT22;10453;50.810;12.540;2022-08-07T19:39:28;17.80;61.00
20590;DHT22;10453;50.810;12.540;2022-08-07T19:44:05;17.40;61.20
20590;DHT22;10453;50.810;12.540;2022-08-07T19:48:39;17.20;62.30
20590;DHT22;10453;50.810;12.540;2022-08-07T19:52:59;16.90;63.30
20590;DHT22;10453;50.810;12.540;2022-08-07T19:57:38;16.70;64.50
20590;DHT22;10453;50.810;12.540;2022-08-07T20:02:17;16.50;66.00
20590;DHT22;10453;50.810;12.540;2022-08-07T20:06:35;16.20;66.70
20590;DHT22;10453;50.810;12.540;2022-08-07T20:11:20;16.00;68.60
20590;DHT22;10453;50.810;12.540;2022-08-07T20:15:56;15.90;69.10
20590;DHT22;10453;50.810;12.540;2022-08-07T20:20:17;15.60;70.50
20590;DHT22;10453;50.810;12.540;2022-08-07T20:24:35;15.50;72.00
20590;DHT22;10453;50.810;12.540;2022-08-07T20:28:54;15.50;73.30
20590;DHT22;10453;50.810;12.540;2022-08-07T20:33:14;15.20;73.90
20590;DHT22;10453;50.810;12.540;2022-08-07T20:37:51;15.00;77.20
20590;DHT22;10453;50.810;12.540;2022-08-07T20:42:15;15.00;79.80
20590;DHT22;10453;50.810;12.540;2022-08-07T20:46:34;14.80;81.20
20590;DHT22;10453;50.810;12.540;2022-08-07T20:51:04;14.70;83.90
20590;DHT22;10453;50.810;12.540;2022-08-07T20:55:25;14.50;86.30
20590;DHT22;10453;50.810;12.540;2022-08-07T20:59:48;14.50;89.30
20590;DHT22;10453;50.810;12.540;2022-08-07T21:04:26;14.40;90.30
20590;DHT22;10453;50.810;12.540;2022-08-07T21:08:51;14.30;92.60
20590;DHT22;10453;50.810;12.540;2022-08-07T21:13:11;14.20;93.20
20590;DHT22;10453;50.810;12.540;2022-08-07T21:17:33;14.20;93.50
20590;DHT22;10453;50.810;12.540;2022-08-07T21:22:10;14.10;95.60
20590;DHT22;10453;50.810;12.540;2022-08-07T21:26:42;14.10;95.50
20590;DHT22;10453;50.810;12.540;2022-08-07T21:31:24;14.10;96.10
20590;DHT22;10453;50.810;12.540;2022-08-07T21:40:42;13.80;99.90
20590;DHT22;10453;50.810;12.540;2022-08-07T21:45:04;13.80;99.90
20590;DHT22;10453;50.810;12.540;2022-08-07T21:49:55;13.80;99.90
20590;DHT22;10453;50.810;12.540;2022-08-07T21:59:03;13.30;99.90
20590;DHT22;10453;50.810;12.540;2022-08-07T22:03:38;13.30;99.90
20590;DHT22;10453;50.810;12.540;2022-08-07T22:07:59;13.30;99.90
20590;DHT22;10453;50.810;12.540;2022-08-07T22:12:29;13.20;99.90
20590;DHT22;10453;50.810;12.540;2022-08-07T22:16:50;13.10;99.90
20590;DHT22;10453;50.810;12.540;2022-08-07T22:21:13;13.20;99.90
20590;DHT22;10453;50.810;12.540;2022-08-07T22:25:47;13.20;99.90
20590;DHT22;10453;50.810;12.540;2022-08-07T22:30:43;13.20;99.90
20590;DHT22;10453;50.810;12.540;2022-08-07T22:34:56;12.90;99.90
20590;DHT22;10453;50.810;12.540;2022-08-07T22:39:20;12.60;99.90
20590;DHT22;10453;50.810;12.540;2022-08-07T22:43:40;12.60;99.90
20590;DHT22;10453;50.810;12.540;2022-08-07T22:48:08;12.50;99.90
20590;DHT22;10453;50.810;12.540;2022-08-07T22:57:44;12.40;99.90
20590;DHT22;10453;50.810;12.540;2022-08-07T23:06:35;12.30;99.90
20590;DHT22;10453;50.810;12.540;2022-08-07T23:15:40;12.20;99.90
20590;DHT22;10453;50.810;12.540;2022-08-07T23:20:23;12.20;99.90
20590;DHT22;10453;50.810;12.540;2022-08-07T23:34:50;12.00;99.90
20590;DHT22;10453;50.810;12.540;2022-08-07T23:39:33;11.90;99.90
20590;DHT22;10453;50.810;12.540;2022-08-07T23:57:25;11.80;99.90
